Time;durP1;ratioP1;P1;durP2;ratioP2;P2;SDS_P1;SDS_P2;PMS_P1;PMS_P2;Temp;Humidity;BMP_temperature;BMP_pressure;BME280_temperature;BME280_humidity;BME280_pressure;Samples;Min_cycle;Max_cycle;Signal;HPM_P1;HPM_P2
2021/05/18 00:00:35;;;;;;;2.35;0.60;;;;;;;10.65;78.56;97296.42;127441;1105;115937;-84
2021/05/18 00:03:02;;;;;;;0.50;0.50;;;;;;;10.63;78.65;97297.87;127522;1104;115195;-83
2021/05/18 00:05:29;;;;;;;0.48;0.48;;;;;;;10.61;78.11;97306.29;128348;1104;22811;-83
2021/05/18 00:08:04;;;;;;;0.60;0.60;;;;;;;10.59;77.86;97296.97;127506;1104;114692;-83
2021/05/18 00:13:20;;;;;;;0.58;0.58;;;;;;;10.52;78.36;97300.20;127575;1104;116234;-84
2021/05/18 00:15:48;;;;;;;0.50;0.50;;;;;;;10.52;78.29;97295.60;127681;1104;116209;-84
2021/05/18 00:18:15;;;;;;;0.33;0.33;;;;;;;10.54;78.69;97306.05;127552;1104;116256;-84
2021/05/18 00:20:42;;;;;;;0.60;0.50;;;;;;;10.55;78.35;97299.54;127677;1104;115406;-84
2021/05/18 00:23:11;;;;;;;0.90;0.60;;;;;;;10.55;78.00;97311.09;128268;1107;22736;-84
2021/05/18 00:25:39;;;;;;;0.50;0.50;;;;;;;10.54;78.24;97312.22;127558;1104;116133;-83
2021/05/18 00:28:05;;;;;;;0.50;0.50;;;;;;;10.51;77.85;97304.02;127527;1105;115743;-83
2021/05/18 00:30:32;;;;;;;1.40;0.50;;;;;;;10.47;77.31;97306.59;127438;1099;116573;-83
2021/05/18 00:32:59;;;;;;;1.10;0.58;;;;;;;10.43;77.56;97318.36;127502;1104;116156;-83
2021/05/18 00:35:25;;;;;;;0.35;0.35;;;;;;;10.39;77.46;97304.01;128388;1104;22821;-83
2021/05/18 00:37:51;;;;;;;0.48;0.48;;;;;;;10.38;77.47;97307.83;127534;1104;115225;-83
2021/05/18 00:40:20;;;;;;;0.40;0.40;;;;;;;10.38;78.04;97310.52;127516;1104;115178;-84
2021/05/18 00:42:47;;;;;;;0.60;0.60;;;;;;;10.36;77.83;97313.52;127490;1106;115805;-83
2021/05/18 00:45:15;;;;;;;1.00;0.40;;;;;;;10.38;77.42;97316.68;127675;1104;117815;-83
2021/05/18 00:47:41;;;;;;;0.40;0.40;;;;;;;10.38;77.37;97323.97;127621;1104;115681;-83
2021/05/18 00:50:09;;;;;;;0.50;0.50;;;;;;;10.35;76.98;97327.31;128433;1100;27261;-83
2021/05/18 00:52:37;;;;;;;0.67;0.53;;;;;;;10.33;76.81;97324.94;127650;1105;115361;-83
2021/05/18 00:55:07;;;;;;;0.50;0.50;;;;;;;10.31;77.20;97332.58;127617;1104;115640;-82
2021/05/18 01:00:19;;;;;;;0.33;0.33;;;;;;;10.28;77.42;97344.00;127519;1104;115350;-83
2021/05/18 01:02:47;;;;;;;0.97;0.60;;;;;;;10.29;77.17;97350.94;127587;1104;115368;-82
2021/05/18 01:05:20;;;;;;;0.30;0.30;;;;;;;10.32;76.41;97339.52;128558;1104;22811;-83
2021/05/18 01:08:02;;;;;;;0.43;0.40;;;;;;;10.33;76.17;97354.54;128421;1104;22751;-83
2021/05/18 01:10:28;;;;;;;0.65;0.40;;;;;;;10.32;76.23;97350.28;127593;1105;115898;-84
2021/05/18 01:12:54;;;;;;;0.30;0.30;;;;;;;10.31;75.59;97346.81;127505;1106;115584;-84
2021/05/18 01:15:20;;;;;;;0.63;0.63;;;;;;;10.27;75.58;97343.22;127609;1104;115560;-84
2021/05/18 01:17:46;;;;;;;0.50;0.50;;;;;;;10.24;75.24;97359.98;127527;1105;115492;-84
2021/05/18 01:20:14;;;;;;;0.20;0.20;;;;;;;10.23;75.69;97361.11;128329;1105;23523;-84
2021/05/18 01:22:47;;;;;;;0.53;0.48;;;;;;;10.24;76.00;97356.52;127585;1104;116085;-84
2021/05/18 01:25:16;;;;;;;0.40;0.40;;;;;;;10.24;76.38;97361.89;127581;1105;115221;-84
2021/05/18 01:27:42;;;;;;;0.85;0.40;;;;;;;10.24;76.05;97359.98;127600;1104;115240;-83
2021/05/18 01:30:09;;;;;;;0.38;0.38;;;;;;;10.27;75.85;97363.95;127502;1105;115769;-84
2021/05/18 01:32:36;;;;;;;1.00;0.70;;;;;;;10.26;75.23;97370.46;127482;1105;115360;-84
2021/05/18 01:35:04;;;;;;;0.85;0.58;;;;;;;10.27;75.44;97361.27;128289;1104;22745;-83
2021/05/18 01:37:30;;;;;;;0.55;0.50;;;;;;;10.28;75.00;97363.61;127619;1104;114852;-83
2021/05/18 01:45:14;;;;;;;0.20;0.20;;;;;;;10.19;74.86;97367.48;127557;1104;115773;-85
2021/05/18 01:47:45;;;;;;;0.30;0.30;;;;;;;10.22;75.16;97364.92;127513;1106;115803;-85
2021/05/18 01:50:12;;;;;;;0.30;0.30;;;;;;;10.21;75.21;97374.09;128467;1104;25309;-84
2021/05/18 01:52:38;;;;;;;0.20;0.20;;;;;;;10.24;75.04;97369.96;127609;1099;115258;-84
2021/05/18 01:55:05;;;;;;;0.65;0.30;;;;;;;10.24;74.19;97378.03;127597;1104;115400;-84
2021/05/18 01:57:31;;;;;;;0.40;0.40;;;;;;;10.22;74.57;97374.91;127499;1107;115743;-84
2021/05/18 01:59:57;;;;;;;3.68;1.80;;;;;;;10.19;74.34;97367.48;127503;1104;115477;-84
2021/05/18 02:02:23;;;;;;;0.30;0.30;;;;;;;10.16;73.94;97371.61;128423;1104;22766;-84
2021/05/18 02:04:53;;;;;;;0.20;0.20;;;;;;;10.14;74.16;97389.19;127558;1100;114801;-83
2021/05/18 02:07:41;;;;;;;0.30;0.30;;;;;;;10.11;74.42;97390.66;127499;1107;115640;-84
2021/05/18 02:10:14;;;;;;;0.23;0.23;;;;;;;10.10;75.08;97389.09;127597;1104;115531;-83
2021/05/18 02:12:41;;;;;;;0.30;0.30;;;;;;;10.11;74.44;97387.19;127368;1107;115940;-83
2021/05/18 02:17:50;;;;;;;0.40;0.40;;;;;;;10.14;74.74;97395.38;127453;1105;115917;-83
2021/05/18 02:20:38;;;;;;;0.28;0.28;;;;;;;10.14;74.16;97395.38;128275;1104;22776;-84
2021/05/18 02:25:49;;;;;;;0.75;0.20;;;;;;;10.11;73.96;97397.94;127548;1105;115271;-83
2021/05/18 02:28:15;;;;;;;0.40;0.40;;;;;;;10.08;73.71;97399.38;127475;1104;116294;-83
2021/05/18 02:30:41;;;;;;;0.45;0.40;;;;;;;10.05;73.65;97398.13;127448;1104;115570;-83
2021/05/18 02:33:07;;;;;;;0.20;0.20;;;;;;;10.05;73.93;97394.65;127436;1106;115740;-83
2021/05/18 02:35:34;;;;;;;0.17;0.17;;;;;;;10.06;74.50;97398.91;127487;1100;115482;-83
2021/05/18 02:38:05;;;;;;;0.50;0.50;;;;;;;10.10;74.56;97407.92;128324;1105;22788;-83
2021/05/18 02:40:35;;;;;;;0.30;0.30;;;;;;;10.13;74.71;97403.77;127587;1104;115808;-84
2021/05/18 02:43:01;;;;;;;0.58;0.53;;;;;;;10.14;74.30;97406.14;127494;1104;115678;-83
2021/05/18 02:45:41;;;;;;;0.43;0.33;;;;;;;10.13;73.75;97406.45;127486;1106;115374;-84
2021/05/18 02:50:52;;;;;;;1.55;0.60;;;;;;;10.13;73.73;97411.83;127446;1105;137838;-83
2021/05/18 02:53:18;;;;;;;1.45;0.58;;;;;;;10.10;73.03;97407.92;128275;1105;22724;-83
2021/05/18 02:56:30;;;;;;;0.60;0.40;;;;;;;10.07;73.32;97397.81;127522;1104;115829;-83
2021/05/18 02:58:35;;;;;;;0.53;0.53;;;;;;;10.03;73.82;97407.66;127504;1104;116097;-84
2021/05/18 03:01:02;;;;;;;0.30;0.30;;;;;;;10.04;74.10;97415.38;127448;1105;115532;-83
2021/05/18 03:03:28;;;;;;;0.30;0.30;;;;;;;10.05;74.17;97421.55;127474;1106;116644;-84
2021/05/18 03:05:55;;;;;;;0.48;0.48;;;;;;;10.05;73.90;97424.23;127600;1104;115997;-84
2021/05/18 03:08:21;;;;;;;0.58;0.58;;;;;;;10.05;74.09;97425.02;128339;1105;22757;-83
2021/05/18 03:10:47;;;;;;;0.38;0.38;;;;;;;10.04;73.58;97431.52;127573;1104;116132;-85
2021/05/18 03:13:14;;;;;;;1.45;0.40;;;;;;;10.04;73.77;97438.80;127528;1104;115893;-85
2021/05/18 03:15:40;;;;;;;1.10;0.35;;;;;;;10.00;73.84;97441.36;127478;1104;115320;-84
2021/05/18 03:18:06;;;;;;;0.63;0.43;;;;;;;9.99;73.99;97441.70;127560;1104;115916;-84
2021/05/18 03:20:32;;;;;;;1.17;0.50;;;;;;;9.98;74.10;97445.48;127566;1104;115789;-85
2021/05/18 03:22:58;;;;;;;0.63;0.63;;;;;;;9.99;74.59;97455.92;128324;1104;23299;-82
2021/05/18 03:25:24;;;;;;;0.75;0.30;;;;;;;10.03;74.65;97454.16;127552;1104;116205;-82
2021/05/18 03:27:57;;;;;;;0.30;0.30;;;;;;;10.05;73.91;97459.20;127554;1105;116742;-83
2021/05/18 03:35:34;;;;;;;1.90;0.67;;;;;;;10.07;74.05;97462.36;127502;1104;115827;-83
2021/05/18 03:38:05;;;;;;;1.13;0.70;;;;;;;10.07;73.85;97462.36;128281;1105;22735;-84
2021/05/18 03:40:31;;;;;;;0.60;0.60;;;;;;;10.06;73.65;97456.20;127649;1104;115749;-82
2021/05/18 03:43:19;;;;;;;0.88;0.78;;;;;;;10.05;73.58;97464.58;127489;1099;115329;-82
2021/05/18 03:45:51;;;;;;;0.50;0.50;;;;;;;10.04;73.51;97469.17;127495;1099;116241;-83
2021/05/18 03:48:42;;;;;;;0.50;0.50;;;;;;;10.08;73.80;97471.99;127549;1105;114989;-84
2021/05/18 03:54:24;;;;;;;0.55;0.55;;;;;;;10.20;74.23;97493.58;127502;1105;116076;-84
2021/05/18 04:48:42;;;;;;;;;;;;;;;;;;;;;
2021/05/18 04:51:16;;;;;;;;;;;;;;;10.89;71.35;97537.23;127416;1108;115600;-82
2021/05/18 04:59:22;;;;;;;1.00;0.40;;;;;;;10.95;71.35;97536.67;128357;1104;22805;-83
2021/05/18 05:02:09;;;;;;;0.45;0.45;;;;;;;11.03;70.47;97537.70;127425;1100;115551;-82
2021/05/18 05:07:09;;;;;;;0.60;0.60;;;;;;;11.19;69.77;97538.64;127726;1104;115312;-82
2021/05/18 05:09:42;;;;;;;0.30;0.30;;;;;;;11.28;69.88;97544.75;127579;1104;116515;-82
2021/05/18 05:14:47;;;;;;;0.30;0.30;;;;;;;11.49;69.40;97533.09;127539;1104;115553;-83
2021/05/18 05:17:13;;;;;;;0.30;0.30;;;;;;;11.50;69.20;97535.44;128288;1104;22735;-83
2021/05/18 05:19:39;;;;;;;1.30;0.40;;;;;;;11.52;69.09;97538.60;127455;1104;115310;-82
2021/05/18 05:22:13;;;;;;;0.50;0.50;;;;;;;11.67;70.06;97547.13;127555;1104;115758;-82
2021/05/18 05:24:41;;;;;;;1.03;0.70;;;;;;;11.80;69.69;97544.12;127497;1105;116099;-82
2021/05/18 05:27:09;;;;;;;0.30;0.30;;;;;;;11.88;68.18;97544.38;127486;1105;115208;-82
2021/05/18 05:29:35;;;;;;;2.08;0.60;;;;;;;11.88;68.58;97541.69;127511;1104;115223;-82
2021/05/18 05:32:01;;;;;;;0.40;0.40;;;;;;;11.91;68.23;97544.49;128233;1104;22767;-82
2021/05/18 05:34:27;;;;;;;0.68;0.63;;;;;;;11.92;68.42;97547.97;127628;1104;114949;-82
2021/05/18 05:36:53;;;;;;;0.50;0.50;;;;;;;11.91;67.62;97546.41;127517;1104;115621;-82
2021/05/18 05:39:23;;;;;;;1.13;0.68;;;;;;;12.01;68.13;97532.45;127522;1100;115560;-82
2021/05/18 05:41:54;;;;;;;0.70;0.70;;;;;;;12.09;67.71;97536.15;127513;1105;115520;-82
2021/05/18 05:44:24;;;;;;;0.40;0.40;;;;;;;12.19;67.10;97549.19;128386;1105;22820;-83
2021/05/18 05:46:51;;;;;;;0.30;0.30;;;;;;;12.27;67.40;97548.27;127654;1104;114774;-82
2021/05/18 05:49:17;;;;;;;1.85;0.45;;;;;;;12.37;67.23;97555.11;127652;1104;114941;-82
2021/05/18 05:51:43;;;;;;;0.40;0.40;;;;;;;12.42;66.82;97539.47;127613;1104;115992;-82
2021/05/18 05:54:10;;;;;;;0.48;0.48;;;;;;;12.52;66.90;97555.18;127425;1099;116091;-81
2021/05/18 05:56:36;;;;;;;0.83;0.43;;;;;;;12.63;66.90;97547.39;127376;1104;115223;-81
2021/05/18 05:59:04;;;;;;;1.30;0.70;;;;;;;12.72;66.25;97539.92;128172;1104;22802;-80
2021/05/18 06:01:31;;;;;;;0.73;0.50;;;;;;;12.72;65.24;97545.33;127321;1105;115655;-79
2021/05/18 06:03:58;;;;;;;0.30;0.30;;;;;;;12.71;65.20;97537.58;127326;1104;115236;-81
2021/05/18 06:06:25;;;;;;;0.65;0.40;;;;;;;12.76;65.55;97542.73;127477;1104;115175;-80
2021/05/18 06:08:51;;;;;;;0.60;0.60;;;;;;;12.86;65.54;97539.55;127482;1104;115797;-80
2021/05/18 06:11:27;;;;;;;0.40;0.40;;;;;;;12.96;65.53;97543.66;128417;1099;26184;-80
2021/05/18 06:14:09;;;;;;;0.65;0.60;;;;;;;13.11;64.76;97550.23;127638;1104;115530;-81
2021/05/18 06:16:55;;;;;;;0.70;0.70;;;;;;;13.22;64.40;97567.53;127422;1104;116196;-80
2021/05/18 06:49:41;;;;;;;1.30;0.50;;;;;;;14.11;62.13;97598.73;127298;1104;115708;-80
2021/05/18 06:52:07;;;;;;;0.60;0.60;;;;;;;14.18;61.44;97607.03;127597;1104;115982;-80
2021/05/18 06:54:40;;;;;;;0.70;0.70;;;;;;;14.17;61.35;97619.78;127278;1100;116113;-80
2021/05/18 06:57:07;;;;;;;1.28;0.80;;;;;;;14.26;61.39;97608.77;127582;1104;115512;-80
2021/05/18 07:02:18;;;;;;;0.80;0.40;;;;;;;14.43;60.23;97615.74;128440;1104;22769;-80
2021/05/18 07:04:44;;;;;;;2.05;0.60;;;;;;;14.53;60.62;97638.80;127631;1104;114898;-80
2021/05/18 07:07:17;;;;;;;0.50;0.50;;;;;;;14.53;60.04;97628.75;127528;1105;115773;-79
2021/05/18 07:09:43;;;;;;;0.50;0.50;;;;;;;14.47;59.45;97633.64;127665;1104;116149;-80
2021/05/18 07:12:10;;;;;;;1.25;0.58;;;;;;;14.57;58.86;97628.84;127629;1104;115434;-80
2021/05/18 07:14:36;;;;;;;0.70;0.70;;;;;;;14.63;59.18;97639.05;127607;1105;115735;-80
2021/05/18 07:17:02;;;;;;;0.50;0.50;;;;;;;14.77;59.16;97641.27;128406;1105;22760;-80
2021/05/18 07:19:28;;;;;;;0.40;0.40;;;;;;;14.84;59.05;97649.56;127664;1104;115263;-80
2021/05/18 07:21:55;;;;;;;1.40;0.40;;;;;;;14.86;58.92;97657.36;127602;1104;116352;-80
2021/05/18 07:24:27;;;;;;;1.10;0.43;;;;;;;14.82;58.71;97641.02;127620;1104;116073;-80
2021/05/18 07:26:53;;;;;;;0.40;0.40;;;;;;;14.77;58.53;97643.98;127657;1104;115719;-80
2021/05/18 07:29:19;;;;;;;0.40;0.40;;;;;;;14.73;58.53;97645.83;128479;1100;22753;-80
2021/05/18 07:31:46;;;;;;;1.55;0.60;;;;;;;14.64;58.66;97656.09;127697;1104;115813;-80
2021/05/18 07:34:12;;;;;;;0.40;0.40;;;;;;;14.62;58.84;97647.52;127529;1105;116297;-80
2021/05/18 07:36:38;;;;;;;0.58;0.58;;;;;;;14.66;58.99;97660.03;127640;1104;115665;-80
2021/05/18 07:39:05;;;;;;;0.40;0.40;;;;;;;14.70;58.86;97652.77;127677;1104;115179;-80
2021/05/18 07:41:34;;;;;;;0.58;0.55;;;;;;;14.73;58.60;97653.96;128459;1099;22805;-80
2021/05/18 07:44:01;;;;;;;0.60;0.60;;;;;;;14.72;58.63;97652.39;128451;1104;22766;-82
2021/05/18 07:46:27;;;;;;;1.15;0.55;;;;;;;14.70;58.77;97660.11;127611;1105;115500;-80
2021/05/18 07:59:37;;;;;;;0.48;0.48;;;;;;;14.98;58.19;97670.78;128457;1104;22795;-80
2021/05/18 08:07:22;;;;;;;0.83;0.55;;;;;;;15.09;57.47;97685.34;127618;1104;115605;-80
2021/05/18 08:09:55;;;;;;;0.83;0.80;;;;;;;15.04;57.66;97680.19;127547;1100;115831;-80
2021/05/18 08:12:21;;;;;;;3.25;1.33;;;;;;;15.12;57.69;97673.77;127695;1104;115848;-79
2021/05/18 08:14:56;;;;;;;1.00;0.58;;;;;;;15.21;57.92;97679.00;127522;1104;115225;-80
2021/05/18 08:17:28;;;;;;;0.48;0.48;;;;;;;15.24;56.95;97680.98;128382;1104;22732;-80
2021/05/18 08:20:26;;;;;;;0.63;0.47;;;;;;;15.21;57.89;97682.50;128379;1104;22786;-79
2021/05/18 09:33:29;;;;;;;0.40;0.40;;;;;;;15.88;56.49;97747.41;127559;1104;115099;-80
2021/05/18 09:48:01;;;;;;;1.38;0.50;;;;;;;15.74;58.17;97749.84;128425;1104;22732;-79
2021/05/18 10:25:14;;;;;;;0.40;0.40;;;;;;;16.43;56.30;97760.80;127939;1104;115758;-80
2021/05/18 10:35:45;;;;;;;0.70;0.70;;;;;;;16.03;58.29;97766.66;128371;1104;22801;-81
2021/05/18 10:38:18;;;;;;;0.50;0.40;;;;;;;15.87;58.51;97766.75;128458;1104;22787;-81
2021/05/18 10:40:45;;;;;;;0.50;0.50;;;;;;;15.80;58.83;97770.14;127652;1099;115642;-81
2021/05/18 10:43:27;;;;;;;0.50;0.50;;;;;;;15.77;59.45;97780.92;127583;1099;115220;-81
2021/05/18 10:45:58;;;;;;;0.90;0.80;;;;;;;15.67;59.94;97776.84;127624;1104;115983;-81
2021/05/18 10:48:55;;;;;;;0.60;0.60;;;;;;;15.53;59.64;97781.96;127651;1104;115360;-81
2021/05/18 10:51:43;;;;;;;0.70;0.70;;;;;;;15.30;60.12;97781.86;127649;1100;115168;-81
2021/05/18 10:54:22;;;;;;;0.60;0.60;;;;;;;15.14;60.33;97792.74;127602;1099;115649;-80
2021/05/18 10:57:16;;;;;;;0.58;0.40;;;;;;;14.98;60.97;97809.82;127580;1104;115645;-81
2021/05/18 10:59:53;;;;;;;0.50;0.50;;;;;;;14.87;61.68;97808.78;127609;1104;115568;-82
2021/05/18 11:02:26;;;;;;;0.67;0.60;;;;;;;14.88;62.76;97809.56;128442;1104;22793;-81
2021/05/18 11:05:19;;;;;;;0.50;0.50;;;;;;;15.10;62.92;97817.06;127619;1099;115281;-81
2021/05/18 11:07:46;;;;;;;0.40;0.40;;;;;;;15.49;62.05;97803.59;127432;1104;115318;-82
2021/05/18 11:10:18;;;;;;;0.78;0.53;;;;;;;15.81;61.04;97798.84;127688;1104;115879;-80
2021/05/18 11:12:51;;;;;;;0.40;0.40;;;;;;;15.90;59.82;97799.41;127573;1100;115683;-82
2021/05/18 11:15:23;;;;;;;0.38;0.38;;;;;;;15.97;59.39;97774.33;127646;1104;115717;-81
2021/05/18 11:17:52;;;;;;;;;;;;;;;16.05;58.44;97767.11;127702;1104;115237;-82
2021/05/18 11:23:27;;;;;;;0.60;0.60;;;;;;;16.57;57.82;97774.61;128407;1104;22735;-82
2021/05/18 11:25:57;;;;;;;0.70;0.70;;;;;;;16.91;56.65;97780.23;127708;1104;115393;-82
2021/05/18 11:28:27;;;;;;;0.73;0.73;;;;;;;17.24;56.30;97759.72;127648;1104;115068;-82
2021/05/18 11:30:57;;;;;;;0.67;0.57;;;;;;;17.59;56.63;97767.56;127698;1104;116840;-82
2021/05/18 11:33:46;;;;;;;0.68;0.68;;;;;;;17.94;55.67;97761.77;127649;1105;115263;-81
2021/05/18 11:36:23;;;;;;;0.55;0.50;;;;;;;18.33;55.33;97761.39;127636;1099;115938;-82
2021/05/18 11:38:58;;;;;;;0.50;0.50;;;;;;;18.63;54.22;97753.88;127663;1105;115258;-82
2021/05/18 11:41:31;;;;;;;0.58;0.58;;;;;;;18.51;52.82;97773.25;128407;1105;22733;-82
2021/05/18 11:43:59;;;;;;;2.38;0.70;;;;;;;18.25;51.95;97773.39;128516;1104;22811;-82
2021/05/18 11:46:28;;;;;;;0.65;0.65;;;;;;;18.04;52.67;97772.02;127626;1105;115508;-81
2021/05/18 11:49:08;;;;;;;0.40;0.40;;;;;;;17.78;52.87;97774.83;127542;1104;115716;-81
2021/05/18 11:51:48;;;;;;;0.60;0.60;;;;;;;17.63;53.89;97771.11;127703;1100;115789;-81
2021/05/18 11:54:17;;;;;;;1.10;0.68;;;;;;;17.57;54.25;97765.22;127580;1104;115776;-81
2021/05/18 11:56:43;;;;;;;0.50;0.50;;;;;;;17.58;54.50;97772.22;127591;1105;115977;-81
2021/05/18 11:59:14;;;;;;;0.70;0.70;;;;;;;17.60;54.01;97785.45;128337;1104;22812;-81
2021/05/18 12:02:04;;;;;;;0.70;0.70;;;;;;;17.41;54.50;97778.23;127657;1100;115670;-80
2021/05/18 12:04:32;;;;;;;0.48;0.48;;;;;;;17.27;54.87;97767.92;127617;1105;115677;-81
2021/05/18 12:07:12;;;;;;;0.70;0.70;;;;;;;17.15;55.62;97760.77;127601;1104;115578;-80
2021/05/18 12:09:49;;;;;;;0.60;0.60;;;;;;;17.13;56.24;97773.97;127649;1100;116215;-81
2021/05/18 12:12:17;;;;;;;1.00;1.00;;;;;;;17.17;56.99;97763.92;127612;1106;115465;-81
2021/05/18 12:14:54;;;;;;;0.93;0.90;;;;;;;17.59;56.55;97765.62;127754;1104;115838;-81
2021/05/18 12:17:28;;;;;;;0.80;0.80;;;;;;;18.13;56.71;97758.09;128506;1104;22748;-80
2021/05/18 12:19:54;;;;;;;0.70;0.70;;;;;;;18.69;56.30;97748.06;127594;1104;117076;-80
2021/05/18 12:22:20;;;;;;;0.90;0.90;;;;;;;19.12;54.57;97740.98;127621;1104;115541;-81
2021/05/18 12:24:47;;;;;;;0.70;0.70;;;;;;;19.57;53.86;97745.13;127615;1104;115539;-81
2021/05/18 12:27:14;;;;;;;1.38;0.95;;;;;;;20.00;52.12;97739.02;127614;1104;116317;-80
2021/05/18 12:29:45;;;;;;;0.95;0.95;;;;;;;20.35;50.50;97730.87;127664;1104;115626;-79
2021/05/18 12:32:28;;;;;;;0.80;0.80;;;;;;;20.67;49.56;97741.09;128537;1104;22811;-80
2021/05/18 12:35:17;;;;;;;1.13;0.80;;;;;;;21.19;49.19;97730.45;127691;1104;114740;-80
2021/05/18 12:37:48;;;;;;;0.70;0.70;;;;;;;21.62;46.68;97737.78;127667;1104;114998;-81
2021/05/18 12:40:27;;;;;;;0.78;0.78;;;;;;;21.30;45.52;97747.64;127672;1104;115510;-81
2021/05/18 12:43:06;;;;;;;0.53;0.53;;;;;;;21.03;45.60;97741.05;127694;1104;115377;-80
2021/05/18 12:45:32;;;;;;;0.80;0.80;;;;;;;21.32;46.11;97742.56;127609;1104;115851;-80
2021/05/18 12:48:08;;;;;;;0.70;0.70;;;;;;;21.75;44.96;97749.84;127641;1104;115758;-81
2021/05/18 12:50:41;;;;;;;1.50;0.90;;;;;;;22.16;44.56;97771.96;127688;1099;116098;-80
2021/05/18 12:53:30;;;;;;;0.80;0.80;;;;;;;22.55;43.10;97747.01;128448;1104;22817;-80
2021/05/18 12:55:57;;;;;;;0.83;0.83;;;;;;;22.69;41.37;97739.86;127607;1105;115550;-80
2021/05/18 12:58:27;;;;;;;0.80;0.80;;;;;;;22.29;41.94;97756.63;127612;1104;115594;-79
2021/05/18 13:01:14;;;;;;;0.80;0.80;;;;;;;21.88;41.35;97753.69;127547;1104;115696;-80
2021/05/18 13:03:42;;;;;;;0.80;0.80;;;;;;;21.42;42.25;97760.15;127592;1104;115199;-80
2021/05/18 13:06:09;;;;;;;0.70;0.70;;;;;;;21.18;42.64;97764.48;127646;1104;115327;-81
2021/05/18 13:08:37;;;;;;;0.78;0.78;;;;;;;21.44;42.01;97760.52;127582;1104;115837;-82
2021/05/18 13:13:53;;;;;;;0.70;0.70;;;;;;;22.42;41.92;97765.14;127693;1104;115053;-81
2021/05/18 13:16:31;;;;;;;0.80;0.80;;;;;;;22.87;41.18;97759.71;127720;1104;115913;-81
2021/05/18 13:19:06;;;;;;;0.80;0.80;;;;;;;23.27;38.27;97762.88;127545;1104;116588;-80
2021/05/18 13:21:44;;;;;;;0.83;0.83;;;;;;;23.13;38.59;97763.02;127676;1104;115596;-80
2021/05/18 13:26:25;;;;;;;0.80;0.80;;;;;;;22.95;38.15;97758.48;127629;1104;115681;-80
2021/05/18 13:27:09;;;;;;;1.75;0.93;;;;;;;22.72;38.37;97767.28;127620;1104;115346;-81
2021/05/18 13:29:36;;;;;;;0.90;0.90;;;;;;;22.85;37.29;97762.06;127586;1104;115474;-81
2021/05/18 13:32:04;;;;;;;0.68;0.68;;;;;;;22.90;37.34;97760.84;128425;1105;22799;-80
2021/05/18 13:34:30;;;;;;;0.70;0.70;;;;;;;22.78;35.67;97751.92;127525;1105;115585;-80
2021/05/18 13:36:56;;;;;;;0.70;0.70;;;;;;;23.15;36.78;97747.70;127563;1104;116219;-80
2021/05/18 13:39:26;;;;;;;0.70;0.70;;;;;;;23.56;36.09;97754.31;127582;1104;115668;-80
2021/05/18 13:41:53;;;;;;;0.90;0.90;;;;;;;23.78;34.13;97752.09;127659;1104;138335;-80
2021/05/18 13:44:19;;;;;;;1.45;0.90;;;;;;;23.66;34.45;97743.23;128476;1105;22750;-80
2021/05/18 13:46:47;;;;;;;0.95;0.80;;;;;;;23.79;33.97;97756.42;127647;1104;115789;-80
2021/05/18 13:49:15;;;;;;;0.80;0.80;;;;;;;23.90;33.16;97749.59;127641;1104;115629;-79
2021/05/18 13:51:42;;;;;;;0.60;0.60;;;;;;;24.07;34.23;97749.77;127716;1099;115745;-78
2021/05/18 13:54:09;;;;;;;0.90;0.90;;;;;;;24.39;33.43;97758.34;127567;1104;115692;-79
2021/05/18 13:56:35;;;;;;;1.18;0.83;;;;;;;24.70;33.23;97752.76;127524;1104;116218;-78
2021/05/18 13:59:01;;;;;;;0.95;0.70;;;;;;;25.04;32.19;97754.56;128367;1104;22805;-78
2021/05/18 14:01:28;;;;;;;1.00;1.00;;;;;;;25.18;31.49;97757.06;127611;1104;115349;-79
2021/05/18 14:03:55;;;;;;;0.83;0.80;;;;;;;25.38;31.52;97757.09;127670;1104;115604;-80
2021/05/18 14:06:21;;;;;;;0.73;0.73;;;;;;;25.57;30.17;97761.05;127655;1104;115493;-79
2021/05/18 14:08:47;;;;;;;0.60;0.60;;;;;;;25.79;30.79;97758.69;127590;1105;115587;-80
2021/05/18 14:11:19;;;;;;;0.80;0.80;;;;;;;26.20;29.48;97763.69;128357;1099;22736;-80
2021/05/18 14:13:53;;;;;;;0.73;0.73;;;;;;;26.38;29.24;97760.54;127522;1104;114659;-79
2021/05/18 14:16:23;;;;;;;1.10;0.93;;;;;;;26.47;30.68;97759.97;127567;1104;115790;-79
2021/05/18 14:18:51;;;;;;;1.47;0.90;;;;;;;26.42;31.41;97752.95;127567;1104;115478;-79
2021/05/18 14:21:25;;;;;;;1.10;0.93;;;;;;;26.34;31.37;97759.84;127631;1099;116492;-79
2021/05/18 14:26:29;;;;;;;1.18;1.10;;;;;;;25.53;32.42;97763.88;128410;1105;22811;-79
2021/05/18 14:28:55;;;;;;;0.70;0.70;;;;;;;25.21;32.76;97762.52;127543;1104;115655;-79
2021/05/18 14:31:23;;;;;;;1.08;0.70;;;;;;;24.99;33.25;97764.06;127464;1104;115521;-80
2021/05/18 14:33:49;;;;;;;0.80;0.80;;;;;;;24.73;33.94;97768.45;127664;1105;116009;-80
2021/05/18 14:36:15;;;;;;;0.70;0.70;;;;;;;24.46;33.98;97766.50;127558;1105;116310;-79
2021/05/18 14:38:44;;;;;;;0.90;0.90;;;;;;;24.63;33.61;97761.13;127574;1099;115620;-80
2021/05/18 14:44:01;;;;;;;1.13;0.95;;;;;;;24.35;34.14;97767.83;127532;1104;115448;-79
2021/05/18 14:56:53;;;;;;;0.80;0.80;;;;;;;23.10;35.99;97780.30;127564;1104;115775;-80
2021/05/18 14:59:19;;;;;;;0.90;0.90;;;;;;;22.91;36.42;97776.95;128333;1099;25851;-79
2021/05/18 15:01:45;;;;;;;1.08;1.08;;;;;;;23.32;36.50;97767.92;127596;1099;116021;-80
2021/05/18 15:04:11;;;;;;;1.25;1.00;;;;;;;23.65;36.67;97782.84;127633;1104;115604;-80
2021/05/18 15:06:39;;;;;;;1.03;1.00;;;;;;;24.02;36.35;97783.23;127432;1105;115031;-79
2021/05/18 15:09:06;;;;;;;0.90;0.90;;;;;;;25.54;34.18;97776.45;127623;1105;116032;-79
2021/05/18 15:11:32;;;;;;;1.10;1.10;;;;;;;26.66;32.76;97778.44;128144;1105;115522;-79
2021/05/18 15:13:57;;;;;;;1.08;1.08;;;;;;;26.81;31.70;97787.94;128103;1098;120703;-79
2021/05/18 15:16:23;;;;;;;0.80;0.80;;;;;;;27.25;31.38;97796.72;127550;1104;115533;-79
2021/05/18 15:18:52;;;;;;;0.87;0.83;;;;;;;28.13;30.00;97800.99;127587;1099;115764;-79
2021/05/18 15:21:18;;;;;;;0.87;0.87;;;;;;;27.68;30.27;97801.09;127525;1104;115454;-79
2021/05/18 15:23:45;;;;;;;1.15;1.10;;;;;;;27.73;30.30;97806.09;127581;1099;115098;-80
2021/05/18 15:26:13;;;;;;;0.98;0.85;;;;;;;27.29;30.18;97796.63;128418;1104;22775;-79
2021/05/18 15:28:42;;;;;;;0.90;0.90;;;;;;;27.48;29.09;97795.72;127381;1099;114969;-79
2021/05/18 15:31:10;;;;;;;0.83;0.83;;;;;;;27.32;29.40;97806.83;127418;1105;115971;-81
2021/05/18 15:33:37;;;;;;;0.80;0.80;;;;;;;26.78;30.05;97791.56;127678;1104;116231;-79
2021/05/18 15:36:04;;;;;;;0.85;0.85;;;;;;;26.27;30.38;97790.36;127351;1104;115649;-79
2021/05/18 15:38:37;;;;;;;1.25;0.80;;;;;;;25.74;29.91;97786.71;128078;1105;22783;-79
2021/05/18 15:41:07;;;;;;;1.10;1.00;;;;;;;25.22;31.05;97790.84;128221;1104;22766;-80
2021/05/18 15:43:36;;;;;;;1.15;1.03;;;;;;;25.08;31.29;97794.61;127222;1105;115618;-79
2021/05/18 15:46:04;;;;;;;1.27;0.77;;;;;;;25.42;30.47;97788.11;127215;1106;115844;-79
2021/05/18 15:48:31;;;;;;;1.28;1.20;;;;;;;26.43;30.34;97788.39;127337;1104;116118;-80
2021/05/18 15:50:59;;;;;;;1.00;1.00;;;;;;;28.11;27.08;97780.53;127281;1105;115440;-79
2021/05/18 15:53:25;;;;;;;1.15;1.15;;;;;;;29.46;27.03;97797.55;127975;1104;22757;-79
2021/05/18 15:55:51;;;;;;;1.43;1.13;;;;;;;30.62;25.31;97787.31;127292;1105;115613;-79
2021/05/18 15:58:17;;;;;;;1.10;1.10;;;;;;;31.37;24.73;97792.59;127450;1104;115064;-79
2021/05/18 16:00:47;;;;;;;0.93;0.93;;;;;;;32.21;21.75;97796.81;127306;1104;115571;-80
2021/05/18 16:03:14;;;;;;;1.20;1.20;;;;;;;32.13;22.69;97792.81;127561;1104;115704;-79
2021/05/18 16:05:40;;;;;;;1.30;1.20;;;;;;;32.42;21.25;97797.84;127375;1104;115874;-79
2021/05/18 16:10:50;;;;;;;0.80;0.80;;;;;;;32.12;21.99;97797.63;127667;1104;115247;-79
2021/05/18 16:13:16;;;;;;;1.20;1.10;;;;;;;30.92;22.45;97799.60;127601;1104;115493;-79
2021/05/18 16:15:43;;;;;;;1.58;1.00;;;;;;;30.15;23.46;97793.88;127627;1099;115785;-79
2021/05/18 16:18:09;;;;;;;0.70;0.70;;;;;;;29.59;24.12;97795.55;127601;1104;116219;-79
2021/05/18 16:20:35;;;;;;;1.08;1.08;;;;;;;28.99;24.71;97801.13;127551;1105;115285;-79